Hlavní strana
METAR-TAF:

METAR-TAF

Letiště :

Altenstadt, Německo

zeměpisná šířka: 47-50N, zeměpisná délka: 010-52E, výška: 739 m

Aktuální stav počasí

Zpráva byla vytvořena před 28 minutami, v 01:20 UTC
Západní vítr 3 kt
Teplota 15°C
Vlhkost vzduchu 94%
Tlak 1023 hPa

METAR: ETHA 190120Z AUTO 26003KT //// // ////// 15/14 Q1023 ///

Čas: 03:48 (01:48 UTC)


TAF: chybějící

Stav a předpovědi počasí z více než 4 000 letišť (zprávy METAR a TAF).

Červené a žluté tečky na mapě představují dostupné meteorologické stanice.

Když kurzor umístíte na tečku, zobrazí se název stanice.

Pak kliknutím zobrazíte stav a předpověď počasí.

Chcete-li změnit mapu, kliknutím na zelené tlačítko se znaménkem +mapu přiblížíte, kliknutím na zelené tlačítko se znaménkem – mapu oddálíte a kliknutím na zelené šipky přejdete na sousední mapy.


METAR-TAF: